Sacramento, California
Traffic Map
Current Weather Conditions
Sacramento, California
Clear
Clear
59°
Feels Like: 59°
Wind Chill: 59° Ceiling: Unl
Heat Index: 59° Visibility: 10mi
Dew Point: 47° Wind: 3mph
Humidity: 64% Direction: 310° (NW)
Pressure: 29.82in Gusts: 0mph
Raw Report DataKSAC 181053Z AUTO 31003KT 10SM CLR 15/08 A2982 RMK AO2 SLP099 T01500083
Traffic Incident Summary
Active as of:
Severity:
Category:
InformationThere was an issue retrieving the traffic information for this location. Please try a different location or try again shortly.
Advertisements
At Last! Intellicast now available for iPhone and Android